MST,Max TemperatureF,Mean TemperatureF,Min TemperatureF,Max Dew PointF,MeanDew PointF,Min DewpointF,Max Humidity, Mean Humidity, Min Humidity, Max Sea Level PressureIn, Mean Sea Level PressureIn, Min Sea Level PressureIn, Max VisibilityMiles, Mean VisibilityMiles, Min VisibilityMiles, Max Wind SpeedMPH, Mean Wind SpeedMPH, Max Gust SpeedMPH,PrecipitationIn, CloudCover, Events, WindDirDegrees
2012-12-1,57,41,24,35,28,21,92,73,40,29.83,29.79,29.72,10,10,10,12,4,14,T,1,,280
2012-12-2,55,38,21,32,27,20,88,62,41,29.82,29.58,29.35,10,10,10,22,4,26,0.00,1,,162
2012-12-3,53,42,31,38,22,15,65,45,26,30.06,29.82,29.47,10,10,10,36,18,47,T,2,Rain,287
2012-12-4,45,34,22,21,19,16,84,63,43,30.24,30.17,30.07,10,10,10,15,7,20,0.00,0,,121
2012-12-5,49,36,22,30,23,17,88,63,42,30.07,29.86,29.70,10,10,10,26,7,32,0.00,1,,207
2012-12-6,41,29,16,18,14,8,80,58,28,30.07,30.02,29.94,10,10,10,20,7,23,0.00,2,,284
2012-12-7,38,27,16,25,21,14,92,77,48,30.00,29.93,29.82,10,9,1,12,4,14,0.01,4,Snow,195
2012-12-8,26,16,6,23,13,1,96,85,80,30.23,29.82,29.63,10,5,0,29,13,37,0.02,6,Snow,53
2012-12-9,12,4,-5,2,-4,-10,87,76,66,30.53,30.33,30.09,10,8,1,28,10,33,T,3,Snow,308
2012-12-10,31,16,1,21,14,-5,92,71,63,30.06,29.85,29.67,10,10,9,32,14,41,0.01,6,Snow,285
2012-12-11,32,19,5,21,16,5,88,77,63,29.89,29.78,29.63,10,10,10,14,6,18,0.00,5,,236
2012-12-12,40,30,19,28,24,15,92,78,59,29.92,29.75,29.62,10,9,3,16,6,18,T,6,Snow,57
2012-12-13,30,25,20,28,23,18,100,92,88,30.06,29.93,29.83,6,2,0,14,6,16,0.00,8,Fog,179
2012-12-14,35,24,12,29,17,9,96,91,78,29.92,29.77,29.62,10,4,0,10,3,12,0.00,1,Fog,208
2012-12-15,33,22,10,22,17,8,92,78,63,29.89,29.82,29.74,10,10,10,16,7,18,0.00,3,,321
2012-12-16,23,17,10,20,17,8,96,90,84,29.83,29.74,29.66,10,4,0,9,4,12,0.01,8,Fog-Snow,132
2012-12-17,29,13,-4,22,6,-4,95,86,69,29.77,29.60,29.41,10,4,0,14,5,16,0.00,3,Fog,144
2012-12-18,36,26,15,22,17,9,91,71,47,29.79,29.65,29.42,10,10,10,30,12,37,0.00,2,,271
2012-12-19,26,11,-4,14,8,-3,88,78,60,30.23,30.04,29.82,10,10,8,24,10,31,0.00,1,,294
2012-12-20,35,18,0,13,5,-3,87,69,38,30.24,30.19,30.14,10,10,7,13,2,16,0.00,0,,268
2012-12-21,41,25,9,19,13,4,88,65,37,30.17,30.09,30.02,10,10,10,9,2,12,0.00,0,,230
2012-12-22,25,14,3,16,5,0,92,80,67,30.26,30.13,30.00,10,9,6,15,8,20,T,2,,30
2012-12-23,8,0,-9,2,0,-13,91,80,73,30.25,30.08,29.96,10,5,0,18,6,23,T,7,Snow,39
2012-12-24,6,-4,-15,0,-8,-19,87,79,74,30.52,30.28,30.03,10,10,7,9,3,12,0.00,4,,49
2012-12-25,11,-1,-13,7,1,-17,91,80,73,30.57,30.38,30.14,10,5,0,8,3,9,0.02,6,Snow,195
2012-12-26,9,-2,-13,5,-1,-17,95,85,80,30.31,30.08,29.90,10,3,0,15,8,20,0.01,8,Fog-Snow,115
2012-12-27,14,1,-13,9,-2,-17,92,82,73,30.18,30.00,29.88,10,2,0,13,3,16,0.07,8,Fog-Snow,79
2012-12-28,20,3,-15,16,-5,-21,91,82,74,30.20,30.05,29.90,10,5,0,15,4,18,0.01,4,Fog-Snow,289
2012-12-29,27,14,0,16,9,1,88,76,63,30.19,30.12,30.06,10,10,10,15,7,,0.00,0,,287
2012-12-30,25,12,-2,19,12,-2,95,81,67,30.19,30.07,29.93,10,10,9,22,7,25,T,5,Snow,297
2012-12-31,22,10,-2,18,9,-6,95,87,77,30.21,30.11,30.00,10,6,0,9,3,12,T,7,Fog-Snow,122